createdAt,value
2022-08-04T00:00:05.469Z,57.09
2022-08-04T00:03:42.523Z,57.19
2022-08-04T00:07:01.132Z,57.17
2022-08-04T00:10:10.474Z,57.40
2022-08-04T00:13:18.561Z,57.42
2022-08-04T00:16:32.960Z,57.54
2022-08-04T00:19:50.014Z,57.84
2022-08-04T00:22:58.339Z,57.76
2022-08-04T00:26:05.713Z,57.75
2022-08-04T00:29:13.230Z,57.88
2022-08-04T00:32:33.778Z,58.36
2022-08-04T00:35:42.757Z,58.26
2022-08-04T00:38:51.029Z,58.27
2022-08-04T00:42:24.473Z,58.05
2022-08-04T00:46:16.263Z,58.38
2022-08-04T00:49:43.804Z,58.41
2022-08-04T00:53:07.617Z,58.74
2022-08-04T00:56:32.967Z,58.36
2022-08-04T00:59:53.064Z,58.79
2022-08-04T01:03:16.036Z,59.31
2022-08-04T01:06:36.355Z,59.04
2022-08-04T01:09:56.058Z,59.22
2022-08-04T01:13:28.898Z,59.32
2022-08-04T01:16:44.533Z,59.36
2022-08-04T01:20:07.925Z,59.55
2022-08-04T01:23:46.568Z,59.68
2022-08-04T01:27:07.394Z,59.55
2022-08-04T01:30:17.449Z,59.75
2022-08-04T01:33:24.001Z,58.90
2022-08-04T01:36:36.447Z,59.73
2022-08-04T01:39:51.288Z,59.87
2022-08-04T01:42:59.939Z,60.27
2022-08-04T01:46:11.020Z,59.93
2022-08-04T01:49:22.373Z,60.49
2022-08-04T01:52:33.055Z,60.66
2022-08-04T01:55:54.632Z,61.04
2022-08-04T01:59:06.162Z,60.92
2022-08-04T02:02:14.379Z,60.79
2022-08-04T02:05:24.021Z,61.11
2022-08-04T02:08:43.080Z,61.32
2022-08-04T02:12:15.840Z,62.15
2022-08-04T02:15:31.945Z,60.40
2022-08-04T02:18:49.604Z,61.59
2022-08-04T02:22:10.006Z,60.56
2022-08-04T02:25:23.874Z,60.21
2022-08-04T02:28:37.046Z,56.67
2022-08-04T02:31:54.017Z,57.37
2022-08-04T02:35:05.750Z,58.12
2022-08-04T02:38:25.679Z,58.53
2022-08-04T02:41:35.567Z,59.64
2022-08-04T02:44:44.653Z,59.55
2022-08-04T02:48:29.610Z,60.52
2022-08-04T02:51:26.015Z,60.91
2022-08-04T02:54:40.311Z,63.36
2022-08-04T02:57:50.697Z,61.95
2022-08-04T03:00:58.141Z,61.08
2022-08-04T03:04:24.387Z,61.66
2022-08-04T03:08:01.121Z,59.92
2022-08-04T03:11:30.003Z,59.88
2022-08-04T03:15:02.916Z,59.68
2022-08-04T03:18:39.137Z,57.65
2022-08-04T03:22:32.448Z,58.24
2022-08-04T03:26:13.849Z,58.95
2022-08-04T03:29:45.173Z,60.02
2022-08-04T03:33:22.307Z,60.56
2022-08-04T03:36:50.280Z,61.15
2022-08-04T03:40:33.449Z,61.67
2022-08-04T03:44:06.030Z,62.89
2022-08-04T03:47:29.702Z,64.26
2022-08-04T03:51:35.109Z,63.37
2022-08-04T03:55:29.204Z,61.90
2022-08-04T03:58:47.904Z,58.80
2022-08-04T04:02:22.022Z,55.67
2022-08-04T04:06:02.528Z,54.50
2022-08-04T04:09:57.725Z,53.70
2022-08-04T04:13:53.105Z,52.83
2022-08-04T04:17:19.605Z,51.92
2022-08-04T04:20:47.892Z,50.96
2022-08-04T04:24:13.051Z,49.99
2022-08-04T04:27:36.033Z,49.07
2022-08-04T04:30:51.075Z,48.23
2022-08-04T04:34:09.175Z,47.22
2022-08-04T04:37:32.045Z,46.56
2022-08-04T04:40:54.669Z,45.40
2022-08-04T04:44:19.980Z,45.32
2022-08-04T04:47:43.040Z,44.42
2022-08-04T04:51:14.718Z,43.81
2022-08-04T04:54:29.992Z,43.49
2022-08-04T04:57:54.305Z,43.02
2022-08-04T05:01:38.787Z,42.72
2022-08-04T05:05:22.719Z,42.06
2022-08-04T05:08:55.097Z,42.18
2022-08-04T05:14:31.289Z,41.62
2022-08-04T05:15:58.130Z,41.28
2022-08-04T05:19:19.962Z,41.13
2022-08-04T05:22:31.220Z,40.73
2022-08-04T05:25:50.142Z,40.69
2022-08-04T05:29:11.893Z,40.52
2022-08-04T05:32:25.861Z,40.40
2022-08-04T05:36:16.402Z,39.78
2022-08-04T05:39:08.643Z,39.32
2022-08-04T05:42:17.167Z,38.75
2022-08-04T05:45:24.124Z,37.94
2022-08-04T05:48:34.191Z,38.97
2022-08-04T05:51:43.520Z,38.65
2022-08-04T05:54:54.302Z,39.48
2022-08-04T05:58:03.479Z,38.50
2022-08-04T06:01:12.212Z,39.38
2022-08-04T06:04:21.483Z,39.12
2022-08-04T06:07:29.670Z,38.74
2022-08-04T06:10:38.802Z,39.01
2022-08-04T06:13:52.043Z,38.78
2022-08-04T06:17:18.329Z,38.80
2022-08-04T06:20:40.901Z,39.21
2022-08-04T06:24:04.280Z,38.87
2022-08-04T06:27:12.992Z,38.42
2022-08-04T06:30:39.023Z,38.22
2022-08-04T06:33:54.501Z,38.77
2022-08-04T06:37:05.314Z,39.17
2022-08-04T06:40:31.232Z,38.67
2022-08-04T06:43:42.797Z,39.05
2022-08-04T06:46:54.264Z,38.84
2022-08-04T06:51:27.840Z,38.76
2022-08-04T06:53:29.969Z,38.60
2022-08-04T06:56:40.920Z,38.38
2022-08-04T06:59:50.942Z,37.92
2022-08-04T07:02:59.080Z,37.44
2022-08-04T07:06:14.306Z,36.80
2022-08-04T07:09:22.620Z,37.08
2022-08-04T07:12:40.192Z,37.23
2022-08-04T07:15:49.467Z,36.57
2022-08-04T07:18:56.944Z,36.34
2022-08-04T07:22:24.962Z,36.13
2022-08-04T07:26:00.462Z,35.78
2022-08-04T07:29:02.434Z,35.76
2022-08-04T07:32:13.883Z,35.56
2022-08-04T07:36:05.694Z,35.16
2022-08-04T07:38:52.322Z,35.34
2022-08-04T07:42:01.118Z,35.38
2022-08-04T07:45:11.916Z,34.35
2022-08-04T07:48:28.634Z,33.35
2022-08-04T07:51:38.115Z,33.03
2022-08-04T07:54:49.022Z,33.04
2022-08-04T07:57:56.612Z,33.08
2022-08-04T08:01:11.859Z,33.08
2022-08-04T08:04:19.805Z,33.01
2022-08-04T08:07:28.844Z,33.35
2022-08-04T08:10:39.205Z,32.49
2022-08-04T08:13:46.903Z,32.06
2022-08-04T08:16:54.577Z,32.16
2022-08-04T08:20:05.459Z,31.88
2022-08-04T08:23:14.362Z,31.60
2022-08-04T08:26:21.869Z,31.50
2022-08-04T08:29:30.173Z,31.08
2022-08-04T08:32:37.465Z,30.84
2022-08-04T08:35:54.892Z,30.87
2022-08-04T08:39:07.186Z,30.32
2022-08-04T08:42:41.621Z,30.47
2022-08-04T08:46:28.472Z,30.20
2022-08-04T08:50:13.700Z,30.32
2022-08-04T08:53:49.407Z,30.12
2022-08-04T08:57:11.955Z,29.78
2022-08-04T09:00:22.147Z,29.96
2022-08-04T09:04:26.723Z,29.97
2022-08-04T09:07:55.622Z,29.85
2022-08-04T09:11:11.207Z,29.98
2022-08-04T09:14:25.544Z,29.74
2022-08-04T09:17:38.915Z,29.40
2022-08-04T09:20:51.649Z,29.48
2022-08-04T09:24:35.293Z,28.84
2022-08-04T09:27:42.209Z,29.09
2022-08-04T09:30:59.251Z,29.03
2022-08-04T09:34:15.101Z,28.87
2022-08-04T09:37:33.316Z,29.20
2022-08-04T09:41:07.391Z,29.18
2022-08-04T09:44:50.585Z,28.67
2022-08-04T09:48:09.691Z,28.56
2022-08-04T09:51:27.057Z,28.52
2022-08-04T09:55:06.205Z,28.50
2022-08-04T09:58:24.125Z,28.37
2022-08-04T10:01:33.360Z,27.97
2022-08-04T10:04:43.755Z,27.93
2022-08-04T10:08:17.246Z,27.70
2022-08-04T10:11:55.707Z,27.72
2022-08-04T10:15:17.887Z,27.63
2022-08-04T10:18:38.899Z,27.58
2022-08-04T10:22:29.172Z,27.52
2022-08-04T10:26:07.404Z,27.39
2022-08-04T10:29:22.597Z,27.11
2022-08-04T10:32:39.964Z,27.27
2022-08-04T10:35:53.499Z,27.49
2022-08-04T10:39:12.024Z,27.20
2022-08-04T10:42:29.005Z,27.34
2022-08-04T10:45:45.539Z,27.53
2022-08-04T10:48:58.970Z,27.16
2022-08-04T10:52:13.375Z,27.20
2022-08-04T10:56:07.778Z,27.35
2022-08-04T10:59:04.709Z,27.05
2022-08-04T11:02:28.087Z,27.56
2022-08-04T11:05:47.191Z,27.42
2022-08-04T11:08:57.148Z,27.41
2022-08-04T11:12:10.867Z,27.07
2022-08-04T11:15:26.492Z,27.38
2022-08-04T11:18:42.374Z,26.86
2022-08-04T11:21:55.056Z,27.13
2022-08-04T11:25:12.076Z,27.02
2022-08-04T11:28:32.389Z,27.24
2022-08-04T11:31:49.824Z,27.34
2022-08-04T11:35:06.562Z,27.37
2022-08-04T11:38:25.547Z,27.45
2022-08-04T11:41:48.878Z,27.39
2022-08-04T11:45:01.777Z,27.44
2022-08-04T11:48:17.675Z,27.46
2022-08-04T11:51:28.186Z,27.64
2022-08-04T11:54:38.359Z,27.61
2022-08-04T11:57:46.219Z,27.56
2022-08-04T12:01:10.139Z,27.34
2022-08-04T12:04:29.176Z,27.35
2022-08-04T12:07:50.701Z,27.56
2022-08-04T12:11:10.770Z,27.38
2022-08-04T12:14:41.118Z,27.36
2022-08-04T12:17:59.221Z,27.32
2022-08-04T12:21:15.050Z,27.18
2022-08-04T12:24:27.371Z,27.17
2022-08-04T12:27:38.372Z,27.01
2022-08-04T12:30:58.252Z,26.63
2022-08-04T12:34:16.029Z,26.99
2022-08-04T12:37:36.552Z,27.09
2022-08-04T12:40:50.954Z,26.95
2022-08-04T12:44:05.807Z,27.07
2022-08-04T12:47:36.912Z,27.04
2022-08-04T12:50:48.438Z,26.74
2022-08-04T12:53:57.146Z,26.88
2022-08-04T12:57:06.088Z,26.99
2022-08-04T13:00:29.276Z,26.94
2022-08-04T13:03:44.222Z,26.76
2022-08-04T13:07:00.235Z,26.83
2022-08-04T13:10:15.038Z,26.84
2022-08-04T13:13:30.299Z,26.96
2022-08-04T13:16:37.858Z,27.13
2022-08-04T13:19:56.287Z,27.02
2022-08-04T13:23:21.409Z,27.33
2022-08-04T13:26:43.616Z,26.86
2022-08-04T13:30:03.733Z,26.61
2022-08-04T13:33:12.828Z,26.90
2022-08-04T13:36:21.198Z,27.11
2022-08-04T13:39:32.068Z,26.91
2022-08-04T13:42:41.158Z,26.97
2022-08-04T13:45:49.970Z,26.88
2022-08-04T13:49:25.912Z,26.91
2022-08-04T13:52:27.969Z,27.02
2022-08-04T13:55:38.320Z,26.92
2022-08-04T13:58:48.738Z,26.71
2022-08-04T14:02:04.251Z,26.73
2022-08-04T14:05:24.302Z,26.53
2022-08-04T14:08:37.930Z,26.35
2022-08-04T14:12:06.046Z,26.68
2022-08-04T14:16:03.042Z,26.74
2022-08-04T14:19:03.464Z,26.64
2022-08-04T14:22:15.171Z,26.20
2022-08-04T14:25:22.809Z,26.31
2022-08-04T14:29:08.561Z,26.29
2022-08-04T14:32:13.017Z,26.55
2022-08-04T14:35:45.543Z,26.59
2022-08-04T14:39:00.778Z,26.55
2022-08-04T14:42:09.397Z,26.61
2022-08-04T14:45:16.976Z,26.32
2022-08-04T14:48:25.530Z,26.29
2022-08-04T14:51:37.335Z,26.28
2022-08-04T14:54:44.674Z,26.45
2022-08-04T14:58:35.008Z,26.72
2022-08-04T15:01:22.028Z,26.78
2022-08-04T15:04:31.573Z,26.94
2022-08-04T15:07:39.651Z,27.05
2022-08-04T15:10:47.566Z,27.10
2022-08-04T15:13:56.113Z,26.63
2022-08-04T15:17:12.129Z,26.25
2022-08-04T15:20:38.337Z,26.49
2022-08-04T15:23:46.121Z,26.80
2022-08-04T15:26:57.370Z,26.63
2022-08-04T15:30:07.921Z,26.63
2022-08-04T15:33:24.076Z,26.16
2022-08-04T15:36:57.142Z,25.58
2022-08-04T15:40:11.146Z,25.67
2022-08-04T15:43:42.105Z,25.57
2022-08-04T15:47:13.512Z,25.59
2022-08-04T15:50:28.160Z,24.87
2022-08-04T15:54:27.390Z,24.91
2022-08-04T15:58:00.593Z,24.55
2022-08-04T16:01:21.385Z,23.78
2022-08-04T16:04:28.659Z,23.54
2022-08-04T16:08:00.194Z,23.30
2022-08-04T16:11:32.177Z,23.36
2022-08-04T16:14:39.918Z,23.58
2022-08-04T16:17:47.432Z,23.41
2022-08-04T16:20:57.928Z,23.27
2022-08-04T16:24:23.743Z,23.52
2022-08-04T16:27:41.563Z,23.77
2022-08-04T16:30:49.953Z,24.13
2022-08-04T16:34:45.716Z,24.26
2022-08-04T16:37:34.247Z,24.32
2022-08-04T16:40:46.712Z,24.16
2022-08-04T16:44:52.687Z,24.50
2022-08-04T16:48:10.531Z,25.04
2022-08-04T16:51:32.399Z,25.41
2022-08-04T16:54:39.980Z,25.49
2022-08-04T16:57:51.140Z,25.33
2022-08-04T17:00:58.948Z,24.87
2022-08-04T17:04:09.245Z,24.41
2022-08-04T17:07:17.138Z,24.07
2022-08-04T17:10:36.740Z,23.85
2022-08-04T17:14:01.841Z,23.66
2022-08-04T17:17:12.120Z,23.65
2022-08-04T17:20:27.205Z,23.84
2022-08-04T17:24:14.141Z,23.74
2022-08-04T17:28:20.555Z,23.74
2022-08-04T17:30:57.665Z,23.97
2022-08-04T17:34:16.606Z,24.04
2022-08-04T17:37:38.071Z,24.20
2022-08-04T17:40:58.726Z,24.12
2022-08-04T17:44:07.404Z,24.44
2022-08-04T17:47:21.510Z,24.48
2022-08-04T17:50:35.913Z,24.72
2022-08-04T17:54:01.674Z,24.84
2022-08-04T17:57:22.276Z,25.14
2022-08-04T18:00:38.568Z,25.39
2022-08-04T18:03:52.972Z,25.75
2022-08-04T18:07:04.658Z,26.14
2022-08-04T18:10:55.710Z,26.34
2022-08-04T18:14:04.412Z,26.86
2022-08-04T18:17:17.815Z,27.21
2022-08-04T18:20:39.627Z,27.72
2022-08-04T18:23:50.925Z,28.18
2022-08-04T18:26:59.000Z,28.80
2022-08-04T18:30:33.934Z,28.45
2022-08-04T18:33:40.042Z,29.77
2022-08-04T18:36:57.531Z,30.73
2022-08-04T18:40:26.316Z,31.24
2022-08-04T18:43:40.997Z,32.04
2022-08-04T18:46:52.571Z,32.50
2022-08-04T18:51:00.573Z,33.28
2022-08-04T18:53:36.262Z,33.88
2022-08-04T18:57:05.220Z,34.41
2022-08-04T19:00:13.768Z,34.82
2022-08-04T19:03:23.150Z,35.29
2022-08-04T19:06:31.233Z,35.76
2022-08-04T19:09:51.356Z,36.05
2022-08-04T19:13:00.415Z,36.68
2022-08-04T19:16:07.069Z,35.68
2022-08-04T19:19:47.719Z,37.19
2022-08-04T19:24:28.361Z,37.59
2022-08-04T19:26:27.726Z,38.05
2022-08-04T19:29:37.379Z,38.24
2022-08-04T19:32:48.328Z,38.78
2022-08-04T19:35:56.068Z,39.25
2022-08-04T19:39:11.827Z,39.40
2022-08-04T19:42:19.915Z,39.97
2022-08-04T19:45:43.726Z,40.16
2022-08-04T19:48:59.004Z,40.51
2022-08-04T19:52:08.789Z,41.17
2022-08-04T19:55:17.381Z,41.26
2022-08-04T19:58:26.723Z,41.26
2022-08-04T20:01:42.222Z,41.62
2022-08-04T20:04:52.913Z,41.61
2022-08-04T20:08:00.267Z,41.54
2022-08-04T20:11:08.267Z,42.01
2022-08-04T20:14:19.071Z,42.24
2022-08-04T20:18:06.802Z,42.40
2022-08-04T20:20:53.989Z,42.55
2022-08-04T20:24:40.530Z,42.81
2022-08-04T20:27:51.517Z,42.79
2022-08-04T20:30:57.756Z,43.11
2022-08-04T20:34:05.206Z,43.50
2022-08-04T20:37:15.432Z,43.68
2022-08-04T20:40:23.050Z,43.75
2022-08-04T20:43:31.293Z,43.95
2022-08-04T20:46:40.145Z,44.32
2022-08-04T20:49:45.956Z,43.98
2022-08-04T20:52:53.282Z,44.62
2022-08-04T20:56:00.678Z,44.94
2022-08-04T20:59:08.201Z,45.18
2022-08-04T21:02:17.556Z,45.24
2022-08-04T21:05:26.524Z,45.41
2022-08-04T21:08:34.343Z,45.88
2022-08-04T21:11:47.297Z,46.00
2022-08-04T21:15:01.378Z,46.14
2022-08-04T21:18:29.040Z,46.40
2022-08-04T21:21:36.902Z,46.55
2022-08-04T21:24:48.510Z,46.54
2022-08-04T21:27:58.525Z,46.82
2022-08-04T21:31:11.230Z,46.90
2022-08-04T21:34:38.331Z,46.92
2022-08-04T21:37:58.255Z,47.19
2022-08-04T21:41:09.421Z,47.45
2022-08-04T21:44:16.977Z,47.52
2022-08-04T21:47:24.285Z,47.67
2022-08-04T21:50:33.736Z,47.92
2022-08-04T21:53:41.347Z,48.13
2022-08-04T21:56:51.818Z,48.25
2022-08-04T22:00:00.480Z,48.13
2022-08-04T22:03:23.330Z,48.31
2022-08-04T22:06:42.592Z,48.38
2022-08-04T22:10:02.799Z,48.51
2022-08-04T22:13:10.966Z,48.60
2022-08-04T22:16:31.170Z,48.73
2022-08-04T22:19:55.803Z,48.59
2022-08-04T22:23:15.365Z,48.51
2022-08-04T22:26:26.800Z,48.61
2022-08-04T22:29:39.126Z,48.63
2022-08-04T22:32:47.399Z,48.59
2022-08-04T22:35:55.188Z,48.54
2022-08-04T22:39:07.673Z,48.64
2022-08-04T22:42:16.253Z,48.83
2022-08-04T22:45:28.847Z,49.07
2022-08-04T22:48:51.012Z,49.15
2022-08-04T22:51:58.388Z,49.18
2022-08-04T22:55:06.355Z,49.28
2022-08-04T22:58:14.751Z,48.77
2022-08-04T23:01:25.077Z,49.29
2022-08-04T23:04:40.500Z,50.07
2022-08-04T23:07:49.208Z,50.03
2022-08-04T23:10:58.312Z,50.21
2022-08-04T23:14:07.202Z,50.04
2022-08-04T23:17:15.416Z,50.47
2022-08-04T23:20:32.579Z,50.65
2022-08-04T23:23:45.465Z,51.05
2022-08-04T23:27:04.072Z,51.05
2022-08-04T23:30:14.233Z,51.36
2022-08-04T23:33:24.409Z,51.47
2022-08-04T23:36:52.761Z,51.72
2022-08-04T23:40:15.545Z,51.81
2022-08-04T23:43:38.731Z,52.22
2022-08-04T23:47:02.441Z,52.12
2022-08-04T23:50:12.635Z,52.49
2022-08-04T23:53:22.514Z,52.46
2022-08-04T23:56:31.928Z,52.84
2022-08-04T23:59:43.859Z,53.19
